Time;durP1;ratioP1;P1;durP2;ratioP2;P2;SDS_P1;SDS_P2;PMS_P1;PMS_P2;Temp;Humidity;BMP_temperature;BMP_pressure;BME280_temperature;BME280_humidity;BME280_pressure;Samples;Min_cycle;Max_cycle;Signal;HPM_P1;HPM_P2
2023/12/30 00:02:05;;;;;;;18.95;3.45;;;;;;;7.03;100.00;100821.28;5083509;28;20478;-94
2023/12/30 00:04:30;;;;;;;21.27;3.58;;;;;;;7.00;100.00;100832.63;5083670;28;20028;-89
2023/12/30 00:06:56;;;;;;;20.38;3.70;;;;;;;7.02;100.00;100830.03;5085644;28;20146;-79
2023/12/30 00:09:21;;;;;;;20.85;3.35;;;;;;;7.02;100.00;100837.91;5084500;28;20036;-79
2023/12/30 00:11:46;;;;;;;19.73;3.53;;;;;;;7.00;100.00;100840.53;5084923;28;20052;-78
2023/12/30 00:14:12;;;;;;;21.83;3.55;;;;;;;7.08;100.00;100852.06;5085726;28;20035;-78
2023/12/30 00:16:39;;;;;;;20.30;3.60;;;;;;;7.03;100.00;100831.81;5083080;28;20032;-79
2023/12/30 00:19:05;;;;;;;19.58;3.72;;;;;;;7.03;100.00;100837.06;5085921;28;20081;-79
2023/12/30 00:21:31;;;;;;;19.95;3.55;;;;;;;6.91;100.00;100842.97;5082644;28;20501;-79
2023/12/30 00:23:57;;;;;;;19.48;3.42;;;;;;;6.86;100.00;100844.63;5085890;28;20055;-79
2023/12/30 00:26:26;;;;;;;17.42;3.35;;;;;;;6.83;100.00;100853.34;5065671;28;20460;-78
2023/12/30 00:28:52;;;;;;;19.55;3.40;;;;;;;6.84;100.00;100862.13;5084611;28;20028;-80
2023/12/30 00:31:28;;;;;;;19.80;3.40;;;;;;;6.90;100.00;100863.13;5084360;28;20032;-78
2023/12/30 00:33:56;;;;;;;18.70;3.30;;;;;;;6.93;100.00;100867.53;5084628;28;20048;-78
2023/12/30 00:36:21;;;;;;;19.17;3.50;;;;;;;6.97;100.00;100862.41;5065373;28;20039;-80
2023/12/30 00:38:47;;;;;;;19.15;3.20;;;;;;;6.95;100.00;100861.47;5083986;28;20029;-81
2023/12/30 00:41:13;;;;;;;18.33;3.33;;;;;;;6.90;100.00;100873.66;5084757;28;20483;-80
2023/12/30 00:43:42;;;;;;;19.95;3.53;;;;;;;6.82;100.00;100875.22;5065180;28;20082;-92
2023/12/30 00:46:08;;;;;;;17.88;3.30;;;;;;;6.77;100.00;100871.59;5086169;28;20028;-86
2023/12/30 00:48:33;;;;;;;19.70;3.33;;;;;;;6.77;100.00;100877.75;5082625;28;20515;-93
2023/12/30 00:51:02;;;;;;;18.25;3.20;;;;;;;6.76;100.00;100883.00;5065244;28;20480;-93
2023/12/30 00:53:29;;;;;;;20.02;3.40;;;;;;;6.88;100.00;100875.34;5085974;28;20031;-92
2023/12/30 00:55:55;;;;;;;16.00;3.30;;;;;;;6.87;100.00;100877.94;5083494;28;20035;-85
2023/12/30 00:58:24;;;;;;;18.45;3.20;;;;;;;6.89;100.00;100886.75;5084743;28;20028;-88
2023/12/30 01:00:50;;;;;;;19.63;3.25;;;;;;;6.87;100.00;100886.69;5066381;28;20360;-86
2023/12/30 01:03:16;;;;;;;19.77;3.00;;;;;;;6.83;100.00;100890.16;5083525;28;20472;-89
2023/12/30 01:05:42;;;;;;;20.10;3.40;;;;;;;6.84;100.00;100891.91;5084887;28;20095;-90
2023/12/30 01:08:07;;;;;;;18.42;3.10;;;;;;;6.86;100.00;100891.91;5082553;28;20029;-78
2023/12/30 01:10:33;;;;;;;19.58;3.38;;;;;;;6.95;100.00;100895.63;5085345;28;20084;-82
2023/12/30 01:12:58;;;;;;;19.25;3.30;;;;;;;6.92;100.00;100897.31;5082021;28;20553;-78
2023/12/30 01:15:23;;;;;;;19.48;3.38;;;;;;;6.90;100.00;100899.00;5083635;28;20043;-78
2023/12/30 01:17:49;;;;;;;17.48;3.10;;;;;;;6.88;100.00;100903.38;5065361;28;20020;-81
2023/12/30 01:20:14;;;;;;;18.55;3.33;;;;;;;6.88;100.00;100908.63;5082860;28;20048;-79
2023/12/30 01:22:40;;;;;;;19.45;3.35;;;;;;;6.88;100.00;100912.13;5067124;28;20051;-81
2023/12/30 01:25:06;;;;;;;17.30;3.05;;;;;;;6.91;100.00;100912.19;5081940;28;20066;-85
2023/12/30 01:27:31;;;;;;;20.05;3.40;;;;;;;6.93;100.00;100918.38;5081706;28;20032;-79
2023/12/30 01:29:56;;;;;;;18.10;3.55;;;;;;;6.91;100.00;100927.94;5084900;28;20035;-78
2023/12/30 01:32:22;;;;;;;20.23;3.38;;;;;;;6.92;100.00;100919.22;5083033;28;20031;-78
2023/12/30 01:34:47;;;;;;;20.17;3.80;;;;;;;6.94;100.00;100925.38;5083269;28;20410;-82
2023/12/30 01:37:12;;;;;;;19.50;3.47;;;;;;;6.94;100.00;100938.53;5084108;28;20119;-87
2023/12/30 01:39:38;;;;;;;22.95;4.00;;;;;;;7.03;100.00;100929.94;5081701;28;20118;-79
2023/12/30 01:42:03;;;;;;;22.13;3.70;;;;;;;6.96;100.00;100931.59;5085311;28;20136;-78
2023/12/30 01:44:29;;;;;;;18.55;3.38;;;;;;;7.06;100.00;100937.91;5081826;28;20039;-82
2023/12/30 01:46:55;;;;;;;21.45;4.00;;;;;;;7.01;100.00;100923.78;5083851;28;20471;-78
2023/12/30 01:49:21;;;;;;;18.40;3.63;;;;;;;6.95;100.00;100924.53;5083217;28;20032;-78
2023/12/30 01:51:47;;;;;;;20.05;3.92;;;;;;;6.96;100.00;100928.94;5083247;28;20032;-82
2023/12/30 01:54:16;;;;;;;21.67;3.92;;;;;;;6.98;100.00;100940.38;5087127;28;20042;-93
2023/12/30 01:56:42;;;;;;;18.90;3.53;;;;;;;7.06;100.00;100924.78;5082535;28;20442;-79
2023/12/30 01:59:08;;;;;;;19.58;3.70;;;;;;;7.04;100.00;100933.47;5084360;28;20111;-78
2023/12/30 02:01:34;;;;;;;21.02;3.95;;;;;;;6.96;100.00;100936.84;5081163;28;20036;-81
2023/12/30 02:04:00;;;;;;;21.63;3.70;;;;;;;6.91;100.00;100948.97;5084370;28;20425;-80
2023/12/30 02:06:25;;;;;;;20.77;4.00;;;;;;;6.87;100.00;100946.25;5064077;28;20031;-78
2023/12/30 02:08:51;;;;;;;19.23;3.75;;;;;;;6.81;100.00;100947.00;5055455;28;20029;-81
2023/12/30 02:11:17;;;;;;;20.80;3.80;;;;;;;6.73;100.00;100941.59;5065505;28;20058;-82
2023/12/30 02:13:43;;;;;;;18.40;3.38;;;;;;;6.69;100.00;100947.63;5064250;28;20021;-79
2023/12/30 02:16:09;;;;;;;20.65;3.50;;;;;;;6.72;100.00;100950.34;5084500;28;20024;-79
2023/12/30 02:18:34;;;;;;;19.08;3.65;;;;;;;6.79;100.00;100951.38;5081621;28;20458;-85
2023/12/30 02:20:59;;;;;;;20.48;3.63;;;;;;;6.92;100.00;100952.53;5083989;28;20052;-84
2023/12/30 02:23:25;;;;;;;21.40;4.03;;;;;;;6.91;100.00;100951.59;5082226;28;20099;-81
2023/12/30 02:25:50;;;;;;;19.55;3.75;;;;;;;6.94;100.00;100950.78;5085111;28;20032;-79
2023/12/30 02:28:16;;;;;;;22.67;3.90;;;;;;;6.94;100.00;100964.81;5087316;28;20111;-80
2023/12/30 02:30:41;;;;;;;20.17;3.60;;;;;;;6.97;100.00;100961.38;5086178;28;20375;-79
2023/12/30 02:33:07;;;;;;;19.23;3.70;;;;;;;6.98;100.00;100966.66;5088724;28;20028;-80
2023/12/30 02:35:32;;;;;;;20.13;4.13;;;;;;;6.92;100.00;100970.91;5085117;28;20040;-81
2023/12/30 02:37:57;;;;;;;19.30;4.00;;;;;;;6.61;100.00;100976.38;5088278;28;20030;-80
2023/12/30 02:40:24;;;;;;;19.52;4.25;;;;;;;6.44;100.00;100956.72;5086613;28;20112;-79
2023/12/30 02:42:49;;;;;;;18.13;4.40;;;;;;;6.32;100.00;100967.84;5069239;28;20086;-87
2023/12/30 02:45:15;;;;;;;19.92;5.22;;;;;;;6.24;100.00;100969.38;5087653;28;20032;-85
2023/12/30 02:47:40;;;;;;;20.83;6.15;;;;;;;6.23;100.00;100979.00;5085374;28;20033;-82
2023/12/30 02:50:06;;;;;;;21.63;7.45;;;;;;;6.17;100.00;100983.19;5070675;28;20093;-88
2023/12/30 02:52:32;;;;;;;20.83;6.30;;;;;;;6.19;100.00;100998.16;5067226;28;20039;-93
2023/12/30 02:54:57;;;;;;;22.95;5.95;;;;;;;6.19;100.00;101002.50;5087408;28;20467;-95
2023/12/30 02:57:24;;;;;;;23.63;5.10;;;;;;;6.26;100.00;100997.44;5068291;28;20028;-90
2023/12/30 02:59:50;;;;;;;20.30;4.35;;;;;;;6.28;100.00;100998.34;5068996;28;20036;-95
2023/12/30 03:02:15;;;;;;;21.50;4.13;;;;;;;6.31;100.00;101002.81;5086535;28;20036;-94
2023/12/30 03:04:41;;;;;;;21.13;4.15;;;;;;;6.22;100.00;100994.72;5084897;28;20025;-83
2023/12/30 03:07:07;;;;;;;20.77;4.10;;;;;;;6.17;100.00;100999.81;5070265;28;20119;-86
2023/12/30 03:09:32;;;;;;;21.98;3.90;;;;;;;6.15;100.00;101004.16;5084736;28;20035;-81
2023/12/30 03:11:57;;;;;;;21.02;4.00;;;;;;;6.23;100.00;101010.50;5087824;28;20020;-82
2023/12/30 03:14:23;;;;;;;20.58;3.80;;;;;;;6.24;100.00;101009.63;5088184;28;20129;-81
2023/12/30 03:16:48;;;;;;;23.25;3.85;;;;;;;6.20;100.00;101009.53;5086261;28;20024;-82
2023/12/30 03:19:13;;;;;;;21.25;3.90;;;;;;;6.11;100.00;101002.31;5085265;28;20056;-79
2023/12/30 03:21:39;;;;;;;22.30;3.70;;;;;;;6.15;100.00;101011.16;5069284;28;20483;-83
2023/12/30 03:24:04;;;;;;;22.27;4.13;;;;;;;6.16;100.00;101011.19;5084243;28;20115;-85
2023/12/30 03:26:30;;;;;;;21.23;3.88;;;;;;;6.16;100.00;101008.56;5087335;28;20051;-86
2023/12/30 03:28:55;;;;;;;21.30;3.80;;;;;;;6.18;100.00;101004.22;5083368;28;20024;-78
2023/12/30 03:31:22;;;;;;;23.35;3.83;;;;;;;6.26;100.00;101007.94;5067338;28;20025;-79
2023/12/30 03:33:48;;;;;;;20.33;3.80;;;;;;;6.30;100.00;101000.16;5085392;28;20510;-78
2023/12/30 03:36:13;;;;;;;20.33;3.67;;;;;;;6.28;100.00;100994.84;5068644;28;20029;-78
2023/12/30 03:38:38;;;;;;;21.17;3.83;;;;;;;6.21;100.00;101001.69;5082963;28;20094;-78
2023/12/30 03:41:04;;;;;;;23.48;4.00;;;;;;;6.20;100.00;100999.03;5069925;28;20540;-80
2023/12/30 03:43:29;;;;;;;20.90;3.58;;;;;;;6.21;100.00;101003.44;5086513;28;20053;-83
2023/12/30 03:45:54;;;;;;;21.55;3.63;;;;;;;6.20;100.00;101002.53;5087119;28;20118;-78
2023/12/30 03:48:19;;;;;;;20.90;3.78;;;;;;;6.14;100.00;101015.50;5085439;28;20577;-81
2023/12/30 03:50:45;;;;;;;23.15;4.15;;;;;;;6.13;100.00;101007.59;5084139;28;20052;-79
2023/12/30 03:53:10;;;;;;;20.10;3.53;;;;;;;6.15;100.00;101024.28;5086744;28;20391;-78
2023/12/30 03:55:35;;;;;;;25.13;3.88;;;;;;;6.15;100.00;101016.41;5083359;28;20074;-78
2023/12/30 03:58:01;;;;;;;22.77;3.90;;;;;;;6.14;100.00;101010.25;5087247;28;20356;-91
2023/12/30 04:00:26;;;;;;;20.80;3.60;;;;;;;6.20;100.00;101010.41;5087012;28;20101;-94
2023/12/30 04:02:52;;;;;;;23.13;3.88;;;;;;;6.21;100.00;101006.94;5087701;28;20503;-91
2023/12/30 04:05:17;;;;;;;21.52;3.63;;;;;;;6.15;100.00;101006.78;5086790;28;20430;-95
2023/12/30 04:07:42;;;;;;;19.67;3.80;;;;;;;6.09;100.00;101009.28;5066688;28;20057;-90
2023/12/30 04:10:08;;;;;;;22.30;3.65;;;;;;;6.04;100.00;101005.63;5087485;28;20035;-91
2023/12/30 04:12:35;;;;;;;21.83;3.60;;;;;;;6.04;100.00;101003.00;5084468;28;20070;-88
2023/12/30 04:15:00;;;;;;;20.52;3.50;;;;;;;5.99;100.00;101010.75;5086984;28;20499;-94
2023/12/30 04:17:26;;;;;;;20.83;3.53;;;;;;;5.92;100.00;101007.03;5084771;28;20042;-85
2023/12/30 04:19:51;;;;;;;22.30;3.95;;;;;;;5.81;100.00;101008.53;5085331;28;20120;-88
2023/12/30 04:22:17;;;;;;;19.85;3.17;;;;;;;5.80;100.00;101011.09;5085821;28;20089;-92
2023/12/30 04:24:42;;;;;;;23.05;3.85;;;;;;;5.81;100.00;101011.16;5084310;28;20039;-88
2023/12/30 04:27:07;;;;;;;22.15;3.63;;;;;;;5.89;100.00;101012.22;5087279;28;20081;-93
2023/12/30 04:29:33;;;;;;;21.75;3.40;;;;;;;5.81;100.00;101008.53;5084275;28;20032;-96
2023/12/30 04:31:58;;;;;;;20.42;3.47;;;;;;;5.79;100.00;101011.94;5086589;28;20091;-94
2023/12/30 04:34:23;;;;;;;24.25;4.00;;;;;;;5.71;100.00;101017.00;5085364;28;20037;-89
2023/12/30 04:36:49;;;;;;;20.50;3.40;;;;;;;5.69;100.00;101016.06;5085459;28;20025;-85
2023/12/30 04:39:14;;;;;;;21.05;3.60;;;;;;;5.68;100.00;101016.88;5086192;28;20092;-88
2023/12/30 04:41:40;;;;;;;23.25;3.95;;;;;;;5.66;100.00;101013.34;5083642;28;20032;-92
2023/12/30 04:44:05;;;;;;;23.00;3.83;;;;;;;5.65;100.00;101024.69;5086743;28;20036;-86
2023/12/30 04:46:30;;;;;;;22.25;3.78;;;;;;;5.58;100.00;101016.66;5065448;28;20111;-84
2023/12/30 04:48:56;;;;;;;20.48;3.50;;;;;;;5.56;100.00;101010.50;5086079;28;20029;-94
2023/12/30 04:51:21;;;;;;;23.05;3.70;;;;;;;5.56;100.00;101012.19;5085210;28;20482;-96
2023/12/30 04:53:47;;;;;;;19.23;3.58;;;;;;;5.63;100.00;101026.38;5085115;28;20111;-86
2023/12/30 04:56:16;;;;;;;23.65;4.15;;;;;;;5.64;100.00;101026.44;5087874;28;20028;-91
2023/12/30 04:58:41;;;;;;;22.23;3.88;;;;;;;5.67;100.00;101036.13;5084574;28;20021;-88
2023/12/30 05:01:08;;;;;;;20.60;3.50;;;;;;;5.66;100.00;101034.34;5086679;28;20028;-82
2023/12/30 05:03:34;;;;;;;24.00;3.88;;;;;;;5.63;100.00;101042.13;5083213;28;20039;-85
2023/12/30 05:06:00;;;;;;;23.05;3.97;;;;;;;5.63;100.00;101047.38;5085130;28;20028;-80
2023/12/30 05:08:25;;;;;;;20.13;3.53;;;;;;;5.63;100.00;101047.38;5065750;28;20115;-77
2023/12/30 05:10:51;;;;;;;22.65;3.72;;;;;;;5.62;100.00;101046.50;5066333;28;20031;-79
2023/12/30 05:13:16;;;;;;;23.30;3.90;;;;;;;5.60;100.00;101053.41;5066522;28;20566;-82
2023/12/30 05:15:42;;;;;;;22.23;3.80;;;;;;;5.65;100.00;101051.81;5082395;28;20048;-83
2023/12/30 05:18:07;;;;;;;23.95;3.75;;;;;;;5.64;100.00;101051.78;5067378;28;20127;-82
2023/12/30 05:20:32;;;;;;;22.30;3.53;;;;;;;5.71;100.00;101064.22;5063638;28;20479;-79
2023/12/30 05:23:01;;;;;;;23.80;3.83;;;;;;;5.67;100.00;101062.34;5066129;28;20403;-80
2023/12/30 05:25:26;;;;;;;22.83;3.85;;;;;;;5.67;100.00;101059.72;5082412;28;20028;-81
2023/12/30 05:27:51;;;;;;;21.15;3.53;;;;;;;5.70;100.00;101062.44;5083343;28;20087;-79
2023/12/30 05:30:17;;;;;;;24.98;3.92;;;;;;;5.70;100.00;101065.06;5083814;28;20134;-80
2023/12/30 05:32:42;;;;;;;22.80;3.85;;;;;;;5.74;100.00;101064.28;5081660;28;20455;-79
2023/12/30 05:35:07;;;;;;;23.00;4.07;;;;;;;5.72;100.00;101058.09;5084735;28;20035;-80
2023/12/30 05:37:33;;;;;;;22.40;3.72;;;;;;;5.72;100.00;101066.88;5082121;28;20029;-80
2023/12/30 05:39:59;;;;;;;24.40;3.70;;;;;;;5.69;100.00;101066.75;5084914;28;20036;-78
2023/12/30 05:42:24;;;;;;;22.73;4.35;;;;;;;5.74;100.00;101069.53;5083204;28;20043;-79
2023/12/30 05:44:50;;;;;;;26.00;4.05;;;;;;;5.70;100.00;101076.41;5082966;28;20029;-85
2023/12/30 05:47:15;;;;;;;22.15;3.60;;;;;;;5.71;100.00;101085.19;5066466;28;20114;-85
2023/12/30 05:49:40;;;;;;;23.15;3.88;;;;;;;5.79;100.00;101075.78;5081546;28;20027;-78
2023/12/30 05:52:07;;;;;;;23.17;4.20;;;;;;;5.81;100.00;101065.34;5084822;28;20039;-78
2023/12/30 05:54:33;;;;;;;22.02;4.00;;;;;;;5.80;100.00;101074.94;5081408;28;20020;-78
2023/12/30 05:57:00;;;;;;;24.17;3.90;;;;;;;5.79;100.00;101081.03;5066066;28;20109;-78
2023/12/30 05:59:26;;;;;;;24.00;3.75;;;;;;;5.74;100.00;101077.41;5082677;28;20103;-78
2023/12/30 06:01:52;;;;;;;22.17;3.75;;;;;;;5.70;100.00;101083.41;5080611;28;20376;-78
2023/12/30 06:04:17;;;;;;;23.40;4.00;;;;;;;5.71;100.00;101086.06;5082228;28;20031;-79
2023/12/30 06:06:43;;;;;;;23.13;4.00;;;;;;;5.69;100.00;101089.50;5083518;28;20037;-81
2023/12/30 06:09:08;;;;;;;23.33;3.88;;;;;;;5.64;100.00;101088.50;5086926;28;20034;-91
2023/12/30 06:11:34;;;;;;;21.85;3.70;;;;;;;5.61;100.00;101089.28;5082422;28;20130;-93
2023/12/30 06:13:59;;;;;;;22.77;3.92;;;;;;;5.59;100.00;101089.25;5066898;28;20028;-96
2023/12/30 06:16:25;;;;;;;21.30;3.85;;;;;;;5.55;100.00;101089.13;5083022;28;20032;-92
2023/12/30 06:18:50;;;;;;;21.83;4.10;;;;;;;5.46;100.00;101087.13;5084139;28;20025;-88
2023/12/30 06:21:15;;;;;;;25.75;4.30;;;;;;;5.46;100.00;101091.47;5085350;28;20048;-96
2023/12/30 06:23:41;;;;;;;22.23;4.03;;;;;;;5.44;100.00;101083.53;5082629;28;20105;-92
2023/12/30 06:26:06;;;;;;;23.13;3.55;;;;;;;5.42;100.00;101098.38;5085952;28;20100;-93
2023/12/30 06:28:31;;;;;;;25.15;3.80;;;;;;;5.47;100.00;101102.00;5064660;28;20029;-91
2023/12/30 06:30:57;;;;;;;23.08;3.90;;;;;;;5.48;100.00;101114.25;5085080;28;20036;-88
2023/12/30 06:33:23;;;;;;;21.23;3.80;;;;;;;5.43;100.00;101115.84;5084538;28;20077;-88
2023/12/30 06:35:49;;;;;;;23.48;3.80;;;;;;;5.41;100.00;101107.94;5083511;28;20090;-93
2023/12/30 06:38:15;;;;;;;24.08;3.90;;;;;;;5.50;100.00;101115.19;5085236;28;20032;-87
2023/12/30 06:40:45;;;;;;;25.00;3.92;;;;;;;5.47;100.00;101108.97;5081956;28;20177;-92
2023/12/30 06:43:11;;;;;;;22.10;3.70;;;;;;;5.40;100.00;101102.66;5085211;28;20061;-86
2023/12/30 06:45:36;;;;;;;24.13;3.85;;;;;;;5.46;100.00;101108.09;5081618;28;20387;-90
2023/12/30 06:48:03;;;;;;;21.25;3.53;;;;;;;5.47;100.00;101114.22;5085061;28;20028;-96
2023/12/30 06:50:28;;;;;;;22.05;3.50;;;;;;;5.44;100.00;101109.78;5065985;28;20039;-92
2023/12/30 06:52:55;;;;;;;22.58;4.10;;;;;;;5.46;100.00;101102.84;5084359;28;20025;-87
2023/12/30 06:55:20;;;;;;;21.02;3.90;;;;;;;5.44;100.00;101099.28;5066859;28;20089;-95
2023/12/30 06:57:46;;;;;;;22.85;3.92;;;;;;;5.44;100.00;101103.66;5082704;28;20032;-95
2023/12/30 07:00:12;;;;;;;19.73;3.80;;;;;;;5.42;100.00;101100.97;5081436;28;20025;-92
2023/12/30 07:02:37;;;;;;;23.08;3.80;;;;;;;5.45;100.00;101106.31;5085687;28;20039;-95
2023/12/30 07:05:04;;;;;;;20.23;3.50;;;;;;;5.48;100.00;101102.91;5064566;28;20072;-95
2023/12/30 07:07:29;;;;;;;22.58;4.05;;;;;;;5.59;100.00;101099.75;5066947;28;20057;-80
2023/12/30 07:09:54;;;;;;;22.92;3.80;;;;;;;5.59;100.00;101099.75;5082102;28;20123;-85
2023/12/30 07:12:20;;;;;;;23.25;3.67;;;;;;;5.67;100.00;101101.69;5082201;28;20029;-84
2023/12/30 07:14:45;;;;;;;21.48;3.55;;;;;;;5.65;100.00;101108.59;5087775;28;20028;-86
2023/12/30 07:17:10;;;;;;;23.10;3.90;;;;;;;5.57;100.00;101106.66;5087231;28;20382;-86
2023/12/30 07:19:36;;;;;;;23.00;3.85;;;;;;;5.56;100.00;101110.16;5083654;28;20117;-87
2023/12/30 07:22:01;;;;;;;22.30;3.70;;;;;;;5.59;100.00;101115.47;5086610;28;20044;-81
2023/12/30 07:24:27;;;;;;;21.20;3.78;;;;;;;5.57;100.00;101109.28;5084841;28;20047;-88
2023/12/30 07:26:52;;;;;;;21.63;3.88;;;;;;;5.63;100.00;101112.94;5085269;28;20024;-88
2023/12/30 07:29:17;;;;;;;23.27;3.70;;;;;;;5.61;100.00;101111.97;5086787;28;20043;-86
2023/12/30 07:31:43;;;;;;;21.92;4.13;;;;;;;5.63;100.00;101115.56;5065944;28;20036;-76
2023/12/30 07:34:08;;;;;;;22.67;3.90;;;;;;;5.64;100.00;101117.34;5068905;28;20103;-78
2023/12/30 07:36:34;;;;;;;22.60;3.67;;;;;;;5.62;100.00;101111.16;5084161;28;20082;-80
2023/12/30 07:38:59;;;;;;;24.02;4.05;;;;;;;5.61;100.00;101115.53;5086192;28;20028;-82
2023/12/30 07:41:25;;;;;;;22.63;4.05;;;;;;;5.59;100.00;101120.72;5084930;28;20032;-81
2023/12/30 07:43:50;;;;;;;21.52;3.80;;;;;;;5.63;100.00;101126.06;5056232;28;20432;-85
2023/12/30 07:46:16;;;;;;;24.17;4.22;;;;;;;5.66;100.00;101120.88;5085933;28;20028;-77
2023/12/30 07:48:42;;;;;;;21.38;3.50;;;;;;;5.57;100.00;101125.00;5069557;28;20028;-77
2023/12/30 07:51:07;;;;;;;18.30;3.38;;;;;;;5.54;100.00;101130.16;5083519;28;20112;-77
2023/12/30 07:53:33;;;;;;;24.73;4.57;;;;;;;5.51;100.00;101122.22;5086239;28;20016;-77
2023/12/30 07:55:58;;;;;;;21.67;3.85;;;;;;;5.53;100.00;101136.28;5084285;28;20028;-88
2023/12/30 07:58:24;;;;;;;23.55;3.90;;;;;;;5.54;100.00;101131.91;5084960;28;20025;-77
2023/12/30 08:00:49;;;;;;;25.27;3.90;;;;;;;5.51;100.00;101142.31;5082442;28;20021;-77
2023/12/30 08:03:15;;;;;;;23.20;3.80;;;;;;;5.51;100.00;101153.69;5079212;28;20037;-77
2023/12/30 08:05:40;;;;;;;22.65;3.50;;;;;;;5.57;100.00;101153.88;5086448;28;20103;-77
2023/12/30 08:08:08;;;;;;;21.17;3.60;;;;;;;5.55;100.00;101160.81;5086387;28;20081;-80
2023/12/30 08:10:33;;;;;;;22.25;3.78;;;;;;;5.56;100.00;101162.59;5083359;28;20021;-77
2023/12/30 08:12:59;;;;;;;21.88;3.63;;;;;;;5.61;100.00;101164.44;5086436;28;20027;-77
2023/12/30 08:15:24;;;;;;;21.60;3.40;;;;;;;5.61;100.00;101159.19;5084324;28;20111;-78
2023/12/30 08:17:50;;;;;;;22.10;3.97;;;;;;;5.67;100.00;101162.91;5085375;28;20051;-85
2023/12/30 08:20:15;;;;;;;23.88;3.83;;;;;;;5.73;100.00;101162.19;5067164;28;20495;-87
2023/12/30 08:22:41;;;;;;;21.65;4.05;;;;;;;5.78;100.00;101165.81;5083207;28;20036;-88
2023/12/30 08:25:08;;;;;;;22.88;4.05;;;;;;;5.86;100.00;101156.44;5082559;28;20035;-89
2023/12/30 08:27:33;;;;;;;23.15;4.00;;;;;;;5.86;100.00;101161.69;5083058;28;20032;-77
2023/12/30 08:29:58;;;;;;;23.77;4.35;;;;;;;5.93;100.00;101163.66;5085952;28;20406;-87
2023/12/30 08:32:24;;;;;;;23.33;4.25;;;;;;;5.94;100.00;101170.69;5083928;28;20075;-88
2023/12/30 08:34:50;;;;;;;24.40;4.55;;;;;;;5.99;100.00;101167.34;5084664;28;20245;-89
2023/12/30 08:37:16;;;;;;;22.05;4.10;;;;;;;5.98;100.00;101166.44;5085411;28;20032;-88
2023/12/30 08:39:41;;;;;;;25.17;4.63;;;;;;;6.05;100.00;101172.75;5083221;28;20430;-77
2023/12/30 08:42:07;;;;;;;21.98;4.50;;;;;;;6.11;100.00;101167.69;5085726;28;20024;-79
2023/12/30 08:44:32;;;;;;;24.65;4.57;;;;;;;6.13;100.00;101160.75;5082539;28;20029;-76
2023/12/30 08:46:58;;;;;;;23.35;4.50;;;;;;;6.17;100.00;101164.34;5085309;28;20039;-77
2023/12/30 08:49:23;;;;;;;23.13;4.65;;;;;;;6.20;100.00;101167.03;5083345;28;20055;-82
2023/12/30 08:51:48;;;;;;;24.10;4.80;;;;;;;6.23;100.00;101168.03;5084135;28;20071;-77
2023/12/30 08:54:14;;;;;;;21.90;4.55;;;;;;;6.28;100.00;101165.53;5084440;28;20035;-82
2023/12/30 08:56:39;;;;;;;24.08;4.60;;;;;;;6.32;100.00;101166.47;5063997;28;20040;-78
2023/12/30 08:59:04;;;;;;;23.15;4.57;;;;;;;6.38;100.00;101169.28;5085550;28;20108;-80
2023/12/30 09:01:30;;;;;;;22.38;4.47;;;;;;;6.42;100.00;101169.41;5082274;28;20468;-78
2023/12/30 09:03:56;;;;;;;23.17;4.72;;;;;;;6.46;100.00;101170.38;5086321;28;20031;-76
2023/12/30 09:06:21;;;;;;;23.35;4.70;;;;;;;6.52;100.00;101167.00;5084033;28;20475;-76
2023/12/30 09:08:47;;;;;;;22.00;4.53;;;;;;;6.56;100.00;101175.00;5065802;28;20049;-86
2023/12/30 09:11:20;;;;;;;22.50;4.45;;;;;;;6.63;100.00;101182.19;5082496;28;20032;-88
2023/12/30 09:13:45;;;;;;;21.33;4.60;;;;;;;6.65;100.00;101191.88;5066129;28;20026;-87
2023/12/30 09:16:11;;;;;;;22.88;4.65;;;;;;;6.66;100.00;101188.41;5081971;28;20032;-87
2023/12/30 09:18:36;;;;;;;22.95;4.70;;;;;;;6.70;100.00;101193.78;5085299;28;20440;-88
2023/12/30 09:21:02;;;;;;;24.02;4.88;;;;;;;6.71;100.00;101197.28;5081389;28;20491;-76
2023/12/30 09:23:27;;;;;;;22.73;4.70;;;;;;;6.73;100.00;101193.84;5084052;28;20116;-81
2023/12/30 09:25:52;;;;;;;23.98;5.25;;;;;;;6.74;100.00;101194.72;5082905;28;20093;-78
2023/12/30 09:28:18;;;;;;;23.20;4.95;;;;;;;6.78;100.00;101194.84;5064559;28;20068;-76
2023/12/30 09:30:43;;;;;;;23.85;5.15;;;;;;;6.81;100.00;101204.53;5065953;28;20032;-80
2023/12/30 09:33:08;;;;;;;25.75;5.07;;;;;;;6.82;100.00;101211.59;5081467;28;20533;-83
2023/12/30 09:35:34;;;;;;;24.50;5.38;;;;;;;6.87;100.00;101209.94;5083891;28;20454;-81
2023/12/30 09:37:59;;;;;;;25.02;5.43;;;;;;;6.94;100.00;101214.50;5081722;28;20060;-80
2023/12/30 09:40:26;;;;;;;24.50;5.38;;;;;;;6.98;100.00;101202.34;5083779;28;20028;-78
2023/12/30 09:42:53;;;;;;;23.27;5.30;;;;;;;7.02;100.00;101198.94;5082581;28;20032;-77
2023/12/30 09:45:19;;;;;;;24.00;5.30;;;;;;;7.02;100.00;101206.84;5082434;28;20029;-78
2023/12/30 09:47:45;;;;;;;23.50;5.93;;;;;;;7.09;100.00;101211.41;5083618;28;20028;-77
2023/12/30 09:50:11;;;;;;;23.10;6.03;;;;;;;7.08;100.00;101209.59;5081307;28;20032;-81
2023/12/30 09:52:36;;;;;;;23.27;5.97;;;;;;;7.12;100.00;101210.56;5066432;28;20024;-80
2023/12/30 09:55:02;;;;;;;26.25;6.47;;;;;;;7.14;100.00;101212.38;5081434;28;20436;-78
2023/12/30 09:57:27;;;;;;;23.75;6.50;;;;;;;7.19;100.00;101203.72;5065626;28;20036;-88
2023/12/30 09:59:55;;;;;;;25.17;6.82;;;;;;;7.19;100.00;101208.97;5082580;28;20067;-85
2023/12/30 10:02:20;;;;;;;23.10;6.45;;;;;;;7.20;100.00;101206.38;5082694;28;20029;-86
2023/12/30 10:04:49;;;;;;;24.05;6.65;;;;;;;7.24;100.00;101195.09;5065107;28;20031;-77
2023/12/30 10:07:15;;;;;;;26.13;6.93;;;;;;;7.29;100.00;101198.69;5064214;28;20040;-78
2023/12/30 10:09:41;;;;;;;23.25;6.47;;;;;;;7.35;100.00;101197.06;5066118;28;20032;-79
2023/12/30 10:12:08;;;;;;;23.88;7.40;;;;;;;7.36;100.00;101188.34;5080971;28;20054;-76
2023/12/30 10:14:33;;;;;;;25.38;7.00;;;;;;;7.42;100.00;101199.00;5084786;28;20037;-77
2023/12/30 10:17:01;;;;;;;24.13;6.88;;;;;;;7.44;100.00;101202.53;5081738;28;20029;-77
2023/12/30 10:19:27;;;;;;;25.90;7.18;;;;;;;7.47;100.00;101207.88;5083236;28;20025;-80
2023/12/30 10:21:52;;;;;;;25.55;6.70;;;;;;;7.51;100.00;101220.25;5081929;28;20376;-81
2023/12/30 10:24:17;;;;;;;24.95;6.97;;;;;;;7.53;100.00;101218.56;5081879;28;20044;-78
2023/12/30 10:26:43;;;;;;;25.48;7.20;;;;;;;7.56;100.00;101223.88;5083292;28;20028;-85
2023/12/30 10:29:10;;;;;;;23.75;6.57;;;;;;;7.60;100.00;101217.84;5080734;28;20048;-82
2023/12/30 10:31:36;;;;;;;24.33;6.80;;;;;;;7.64;100.00;101224.91;5080861;28;20036;-86
2023/12/30 10:34:01;;;;;;;24.05;7.13;;;;;;;7.67;100.00;101216.22;5083596;28;20383;-86
2023/12/30 10:36:28;;;;;;;25.20;7.32;;;;;;;7.71;100.00;101222.44;5081626;28;20134;-87
2023/12/30 10:38:54;;;;;;;25.85;7.28;;;;;;;7.70;100.00;101215.41;5082557;28;20067;-87
2023/12/30 10:41:20;;;;;;;24.40;6.45;;;;;;;7.70;100.00;101216.28;5082331;28;20030;-86
2023/12/30 10:43:45;;;;;;;24.52;7.47;;;;;;;7.72;100.00;101214.59;5082091;28;20028;-86
2023/12/30 10:46:12;;;;;;;23.48;6.97;;;;;;;7.75;100.00;101213.78;5049535;28;20021;-87
2023/12/30 10:48:50;;;;;;;23.58;6.75;;;;;;;7.75;100.00;101219.03;5087894;28;20079;-80
2023/12/30 10:51:24;;;;;;;24.52;7.03;;;;;;;7.81;100.00;101225.31;5070376;28;20569;-82
2023/12/30 10:54:00;;;;;;;26.67;7.45;;;;;;;7.87;100.00;101221.91;5085972;28;20108;-77
2023/12/30 10:56:28;;;;;;;23.38;6.63;;;;;;;7.92;100.00;101204.50;5085620;28;20024;-82
2023/12/30 10:58:59;;;;;;;26.30;7.30;;;;;;;7.97;100.00;101223.00;5086195;28;20111;-79
2023/12/30 11:01:25;;;;;;;24.15;6.68;;;;;;;8.01;100.00;101195.91;5085326;28;20040;-77
2023/12/30 11:03:52;;;;;;;24.23;6.40;;;;;;;8.03;100.00;101195.03;5085793;28;20033;-77
2023/12/30 11:06:34;;;;;;;25.10;6.90;;;;;;;8.07;100.00;101189.84;5086684;28;20024;-77
2023/12/30 11:09:06;;;;;;;26.40;6.82;;;;;;;8.06;100.00;101188.97;5086964;28;20039;-77
2023/12/30 11:11:32;;;;;;;24.00;6.40;;;;;;;8.07;100.00;101181.94;5084296;28;20024;-78